sensor_id;sensor_type;location;lat;lon;timestamp;pressure;altitude;pressure_sealevel;temperature;humidity
51359;BME280;37448;51.588;7.248;2024-02-21T00:01:41;101638.63;;;8.26;99.05
51359;BME280;37448;51.588;7.248;2024-02-21T00:03:42;101632.56;;;8.24;98.55
51359;BME280;37448;51.588;7.248;2024-02-21T00:05:42;101626.47;;;8.23;97.04
51359;BME280;37448;51.588;7.248;2024-02-21T00:07:43;101621.31;;;8.25;99.09
51359;BME280;37448;51.588;7.248;2024-02-21T00:09:43;101625.63;;;8.23;96.48
51359;BME280;37448;51.588;7.248;2024-02-21T00:11:43;101609.16;;;8.21;96.07
51359;BME280;37448;51.588;7.248;2024-02-21T00:13:44;101612.63;;;8.23;96.96
51359;BME280;37448;51.588;7.248;2024-02-21T00:15:44;101607.41;;;8.21;96.89
51359;BME280;37448;51.588;7.248;2024-02-21T00:17:45;101602.22;;;8.23;97.78
51359;BME280;37448;51.588;7.248;2024-02-21T00:19:45;101603.06;;;8.20;97.90
51359;BME280;37448;51.588;7.248;2024-02-21T00:21:45;101592.69;;;8.22;98.16
51359;BME280;37448;51.588;7.248;2024-02-21T00:23:46;101590.09;;;8.22;96.83
51359;BME280;37448;51.588;7.248;2024-02-21T00:25:46;101590.97;;;8.22;98.55
51359;BME280;37448;51.588;7.248;2024-02-21T00:27:46;101590.09;;;8.22;99.36
51359;BME280;37448;51.588;7.248;2024-02-21T00:29:47;101579.72;;;8.22;98.25
51359;BME280;37448;51.588;7.248;2024-02-21T00:31:49;101567.59;;;8.24;97.90
51359;BME280;37448;51.588;7.248;2024-02-21T00:33:49;101571.06;;;8.23;98.60
51359;BME280;37448;51.588;7.248;2024-02-21T00:35:50;101572.78;;;8.21;98.63
51359;BME280;37448;51.588;7.248;2024-02-21T00:37:51;101567.59;;;8.24;100.00
51359;BME280;37448;51.588;7.248;2024-02-21T00:39:53;101571.03;;;8.20;100.00
51359;BME280;37448;51.588;7.248;2024-02-21T00:41:54;101572.78;;;8.22;98.54
51359;BME280;37448;51.588;7.248;2024-02-21T00:43:54;101572.78;;;8.21;97.33
51359;BME280;37448;51.588;7.248;2024-02-21T00:45:55;101561.53;;;8.22;98.89
51359;BME280;37448;51.588;7.248;2024-02-21T00:47:55;101560.66;;;8.23;98.13
51359;BME280;37448;51.588;7.248;2024-02-21T00:49:55;101553.72;;;8.22;98.44
51359;BME280;37448;51.588;7.248;2024-02-21T00:51:56;101556.31;;;8.23;98.67
51359;BME280;37448;51.588;7.248;2024-02-21T00:53:56;101547.66;;;8.20;98.19
51359;BME280;37448;51.588;7.248;2024-02-21T00:55:56;101544.19;;;8.21;98.15
51359;BME280;37448;51.588;7.248;2024-02-21T00:57:57;101551.13;;;8.22;97.79
51359;BME280;37448;51.588;7.248;2024-02-21T00:59:57;101545.94;;;8.22;98.91
51359;BME280;37448;51.588;7.248;2024-02-21T01:01:57;101537.25;;;8.20;98.82
51359;BME280;37448;51.588;7.248;2024-02-21T01:03:58;101535.50;;;8.15;98.96
51359;BME280;37448;51.588;7.248;2024-02-21T01:05:58;101543.31;;;8.15;98.11
51359;BME280;37448;51.588;7.248;2024-02-21T01:07:58;101540.69;;;8.14;97.49
51359;BME280;37448;51.588;7.248;2024-02-21T01:09:59;101538.09;;;8.15;98.87
51359;BME280;37448;51.588;7.248;2024-02-21T01:11:59;101529.44;;;8.13;98.42
51359;BME280;37448;51.588;7.248;2024-02-21T01:14:00;101527.72;;;8.15;99.87
51359;BME280;37448;51.588;7.248;2024-02-21T01:16:00;101526.00;;;8.19;100.00
51359;BME280;37448;51.588;7.248;2024-02-21T01:18:01;101523.38;;;8.19;100.00
51359;BME280;37448;51.588;7.248;2024-02-21T01:20:03;101526.00;;;8.17;100.00
51359;BME280;37448;51.588;7.248;2024-02-21T01:22:05;101519.06;;;8.16;100.00
51359;BME280;37448;51.588;7.248;2024-02-21T01:24:06;101524.25;;;8.16;99.21
51359;BME280;37448;51.588;7.248;2024-02-21T01:26:06;101498.28;;;8.16;100.00
51359;BME280;37448;51.588;7.248;2024-02-21T01:28:08;101506.06;;;8.16;99.87
51359;BME280;37448;51.588;7.248;2024-02-21T01:30:09;101500.00;;;8.14;99.75
51359;BME280;37448;51.588;7.248;2024-02-21T01:32:10;101493.94;;;8.15;99.22
51359;BME280;37448;51.588;7.248;2024-02-21T01:34:11;101497.41;;;8.17;99.17
51359;BME280;37448;51.588;7.248;2024-02-21T01:36:11;101489.63;;;8.14;99.29
51359;BME280;37448;51.588;7.248;2024-02-21T01:38:12;101490.47;;;8.18;100.00
51359;BME280;37448;51.588;7.248;2024-02-21T01:40:13;101497.41;;;8.14;97.72
51359;BME280;37448;51.588;7.248;2024-02-21T01:42:13;101502.59;;;8.16;98.54
51359;BME280;37448;51.588;7.248;2024-02-21T01:44:14;101501.75;;;8.18;100.00
51359;BME280;37448;51.588;7.248;2024-02-21T01:46:14;101502.59;;;8.16;99.54
51359;BME280;37448;51.588;7.248;2024-02-21T01:48:14;101494.81;;;8.17;98.22
51359;BME280;37448;51.588;7.248;2024-02-21T01:50:16;101491.34;;;8.17;97.58
51359;BME280;37448;51.588;7.248;2024-02-21T01:52:17;101480.97;;;8.15;99.23
51359;BME280;37448;51.588;7.248;2024-02-21T01:54:18;101473.16;;;8.17;100.00
51359;BME280;37448;51.588;7.248;2024-02-21T01:56:19;101479.22;;;8.14;99.97
51359;BME280;37448;51.588;7.248;2024-02-21T01:58:20;101475.75;;;8.15;99.50
51359;BME280;37448;51.588;7.248;2024-02-21T02:00:21;101481.84;;;8.17;100.00
51359;BME280;37448;51.588;7.248;2024-02-21T02:02:22;101480.09;;;8.18;99.58
51359;BME280;37448;51.588;7.248;2024-02-21T02:04:23;101476.63;;;8.17;99.72
51359;BME280;37448;51.588;7.248;2024-02-21T02:06:25;101472.31;;;8.16;99.18
51359;BME280;37448;51.588;7.248;2024-02-21T02:08:25;101467.97;;;8.17;99.39
51359;BME280;37448;51.588;7.248;2024-02-21T02:10:26;101466.22;;;8.16;99.56
51359;BME280;37448;51.588;7.248;2024-02-21T02:12:27;101466.22;;;8.16;100.00
51359;BME280;37448;51.588;7.248;2024-02-21T02:14:27;101468.75;;;8.08;96.39
51359;BME280;37448;51.588;7.248;2024-02-21T02:16:27;101458.41;;;8.10;96.93
51359;BME280;37448;51.588;7.248;2024-02-21T02:18:28;101452.34;;;8.11;98.02
51359;BME280;37448;51.588;7.248;2024-02-21T02:20:28;101447.13;;;8.09;97.30
51359;BME280;37448;51.588;7.248;2024-02-21T02:22:29;101449.72;;;8.09;98.27
51359;BME280;37448;51.588;7.248;2024-02-21T02:24:30;101435.88;;;8.10;99.79
51359;BME280;37448;51.588;7.248;2024-02-21T02:26:30;101438.47;;;8.09;99.45
51359;BME280;37448;51.588;7.248;2024-02-21T02:28:31;101424.63;;;8.08;100.00
51359;BME280;37448;51.588;7.248;2024-02-21T02:30:32;101422.00;;;8.08;99.85
51359;BME280;37448;51.588;7.248;2024-02-21T02:32:34;101410.75;;;8.09;100.00
51359;BME280;37448;51.588;7.248;2024-02-21T02:34:34;101414.22;;;8.07;100.00
51359;BME280;37448;51.588;7.248;2024-02-21T02:36:35;101413.34;;;8.03;100.00
51359;BME280;37448;51.588;7.248;2024-02-21T02:38:35;101396.88;;;7.99;100.00
51359;BME280;37448;51.588;7.248;2024-02-21T02:40:38;101415.03;;;7.98;98.97
51359;BME280;37448;51.588;7.248;2024-02-21T02:42:38;101406.38;;;7.96;98.37
51359;BME280;37448;51.588;7.248;2024-02-21T02:44:39;101404.66;;;7.98;100.00
51359;BME280;37448;51.588;7.248;2024-02-21T02:46:42;101394.25;;;7.95;99.34
51359;BME280;37448;51.588;7.248;2024-02-21T02:48:42;101391.66;;;7.95;100.00
51359;BME280;37448;51.588;7.248;2024-02-21T02:50:43;101402.03;;;7.95;100.00
51359;BME280;37448;51.588;7.248;2024-02-21T02:52:43;101395.06;;;7.89;100.00
51359;BME280;37448;51.588;7.248;2024-02-21T02:54:44;101395.97;;;7.89;100.00
51359;BME280;37448;51.588;7.248;2024-02-21T02:56:45;101399.38;;;7.85;99.35
51359;BME280;37448;51.588;7.248;2024-02-21T02:58:45;101395.91;;;7.86;99.65
51359;BME280;37448;51.588;7.248;2024-02-21T03:00:46;101392.47;;;7.86;99.32
51359;BME280;37448;51.588;7.248;2024-02-21T03:02:48;101391.59;;;7.87;100.00
51359;BME280;37448;51.588;7.248;2024-02-21T03:04:49;101386.41;;;7.84;100.00
51359;BME280;37448;51.588;7.248;2024-02-21T03:06:49;101391.56;;;7.79;100.00
51359;BME280;37448;51.588;7.248;2024-02-21T03:08:50;101398.53;;;7.85;100.00
51359;BME280;37448;51.588;7.248;2024-02-21T03:10:55;101399.34;;;7.82;100.00
51359;BME280;37448;51.588;7.248;2024-02-21T03:12:55;101397.63;;;7.81;99.06
51359;BME280;37448;51.588;7.248;2024-02-21T03:14:56;101388.13;;;7.85;100.00
51359;BME280;37448;51.588;7.248;2024-02-21T03:16:57;101386.41;;;7.84;100.00
51359;BME280;37448;51.588;7.248;2024-02-21T03:18:57;101384.66;;;7.83;100.00
51359;BME280;37448;51.588;7.248;2024-02-21T03:20:58;101364.75;;;7.86;100.00
51359;BME280;37448;51.588;7.248;2024-02-21T03:22:58;101373.41;;;7.85;100.00
51359;BME280;37448;51.588;7.248;2024-02-21T03:24:58;101366.53;;;7.87;100.00
51359;BME280;37448;51.588;7.248;2024-02-21T03:26:59;101371.69;;;7.86;100.00
51359;BME280;37448;51.588;7.248;2024-02-21T03:28:59;101376.03;;;7.90;100.00
51359;BME280;37448;51.588;7.248;2024-02-21T03:30:59;101368.25;;;7.87;100.00
51359;BME280;37448;51.588;7.248;2024-02-21T03:33:00;101360.44;;;7.87;100.00
51359;BME280;37448;51.588;7.248;2024-02-21T03:35:01;101371.72;;;7.87;100.00
51359;BME280;37448;51.588;7.248;2024-02-21T03:37:01;101363.06;;;7.88;100.00
51359;BME280;37448;51.588;7.248;2024-02-21T03:39:03;101356.16;;;7.91;100.00
51359;BME280;37448;51.588;7.248;2024-02-21T03:41:03;101350.97;;;7.91;100.00
51359;BME280;37448;51.588;7.248;2024-02-21T03:43:03;101349.22;;;7.89;100.00
51359;BME280;37448;51.588;7.248;2024-02-21T03:45:04;101347.50;;;7.93;100.00
51359;BME280;37448;51.588;7.248;2024-02-21T03:47:05;101346.63;;;7.89;100.00
51359;BME280;37448;51.588;7.248;2024-02-21T03:49:05;101346.63;;;7.94;100.00
51359;BME280;37448;51.588;7.248;2024-02-21T03:51:05;101365.69;;;7.96;100.00
51359;BME280;37448;51.588;7.248;2024-02-21T03:53:06;101370.88;;;7.96;100.00
51359;BME280;37448;51.588;7.248;2024-02-21T03:55:06;101371.75;;;7.94;99.06
51359;BME280;37448;51.588;7.248;2024-02-21T03:57:07;101368.28;;;7.95;100.00
51359;BME280;37448;51.588;7.248;2024-02-21T03:59:08;101369.16;;;7.97;100.00
51359;BME280;37448;51.588;7.248;2024-02-21T04:01:08;101360.47;;;7.96;100.00
51359;BME280;37448;51.588;7.248;2024-02-21T04:03:09;101376.06;;;7.96;98.52
51359;BME280;37448;51.588;7.248;2024-02-21T04:05:09;101383.00;;;7.97;99.07
51359;BME280;37448;51.588;7.248;2024-02-21T04:07:13;101379.56;;;7.97;97.72
51359;BME280;37448;51.588;7.248;2024-02-21T04:09:14;101369.16;;;7.97;99.68
51359;BME280;37448;51.588;7.248;2024-02-21T04:11:14;101372.63;;;7.99;100.00
51359;BME280;37448;51.588;7.248;2024-02-21T04:13:14;101377.81;;;7.97;99.16
51359;BME280;37448;51.588;7.248;2024-02-21T04:15:15;101365.72;;;7.99;100.00
51359;BME280;37448;51.588;7.248;2024-02-21T04:17:16;101373.53;;;8.02;100.00
51359;BME280;37448;51.588;7.248;2024-02-21T04:19:17;101370.03;;;8.02;100.00
51359;BME280;37448;51.588;7.248;2024-02-21T04:21:17;101363.97;;;7.98;97.98
51359;BME280;37448;51.588;7.248;2024-02-21T04:23:18;101367.41;;;7.97;98.48
51359;BME280;37448;51.588;7.248;2024-02-21T04:25:18;101363.13;;;8.01;99.59
51359;BME280;37448;51.588;7.248;2024-02-21T04:27:19;101360.50;;;7.98;98.20
51359;BME280;37448;51.588;7.248;2024-02-21T04:29:19;101352.72;;;7.98;97.84
51359;BME280;37448;51.588;7.248;2024-02-21T04:31:20;101351.88;;;8.00;99.76
51359;BME280;37448;51.588;7.248;2024-02-21T04:33:20;101366.56;;;8.00;98.44
51359;BME280;37448;51.588;7.248;2024-02-21T04:35:20;101362.25;;;8.00;98.84
51359;BME280;37448;51.588;7.248;2024-02-21T04:37:21;101359.66;;;7.99;97.27
51359;BME280;37448;51.588;7.248;2024-02-21T04:39:21;101359.63;;;7.96;97.18
51359;BME280;37448;51.588;7.248;2024-02-21T04:41:21;101347.53;;;7.98;98.97
51359;BME280;37448;51.588;7.248;2024-02-21T04:43:22;101352.72;;;7.98;99.40
51359;BME280;37448;51.588;7.248;2024-02-21T04:45:22;101344.03;;;7.97;99.62
51359;BME280;37448;51.588;7.248;2024-02-21T04:47:23;101344.06;;;7.96;98.48
51359;BME280;37448;51.588;7.248;2024-02-21T04:49:25;101330.19;;;7.98;100.00
51359;BME280;37448;51.588;7.248;2024-02-21T04:51:25;101333.66;;;7.96;98.52
51359;BME280;37448;51.588;7.248;2024-02-21T04:53:25;101337.13;;;7.95;99.35
51359;BME280;37448;51.588;7.248;2024-02-21T04:55:26;101340.59;;;7.97;100.00
51359;BME280;37448;51.588;7.248;2024-02-21T04:57:26;101338.84;;;7.96;100.00
51359;BME280;37448;51.588;7.248;2024-02-21T04:59:26;101344.06;;;7.96;100.00
51359;BME280;37448;51.588;7.248;2024-02-21T05:01:28;101329.31;;;7.93;99.07
51359;BME280;37448;51.588;7.248;2024-02-21T05:03:28;101330.22;;;7.97;100.00
51359;BME280;37448;51.588;7.248;2024-02-21T05:05:28;101332.78;;;7.95;100.00
51359;BME280;37448;51.588;7.248;2024-02-21T05:07:29;101331.06;;;7.96;99.90
51359;BME280;37448;51.588;7.248;2024-02-21T05:09:29;101336.25;;;7.94;99.57
51359;BME280;37448;51.588;7.248;2024-02-21T05:11:30;101335.41;;;7.97;100.00
51359;BME280;37448;51.588;7.248;2024-02-21T05:13:31;101338.88;;;7.99;100.00
51359;BME280;37448;51.588;7.248;2024-02-21T05:15:31;101333.66;;;7.96;99.32
51359;BME280;37448;51.588;7.248;2024-02-21T05:17:31;101331.94;;;7.95;99.75
51359;BME280;37448;51.588;7.248;2024-02-21T05:19:32;101324.16;;;7.99;100.00
51359;BME280;37448;51.588;7.248;2024-02-21T05:21:32;101330.19;;;7.94;97.37
51359;BME280;37448;51.588;7.248;2024-02-21T05:23:32;101315.47;;;7.93;95.65
51359;BME280;37448;51.588;7.248;2024-02-21T05:25:33;101318.06;;;7.97;97.65
51359;BME280;37448;51.588;7.248;2024-02-21T05:27:33;101321.53;;;7.95;96.85
51359;BME280;37448;51.588;7.248;2024-02-21T05:29:35;101312.88;;;7.96;97.42
51359;BME280;37448;51.588;7.248;2024-02-21T05:33:50;101313.78;;;7.99;97.98
51359;BME280;37448;51.588;7.248;2024-02-21T05:35:51;101314.63;;;7.94;96.70
51359;BME280;37448;51.588;7.248;2024-02-21T05:37:51;101312.88;;;7.96;97.68
51359;BME280;37448;51.588;7.248;2024-02-21T05:39:52;101310.28;;;7.97;97.78
51359;BME280;37448;51.588;7.248;2024-02-21T05:41:53;101314.63;;;7.97;98.41
51359;BME280;37448;51.588;7.248;2024-02-21T05:43:53;101308.59;;;7.99;99.54
51359;BME280;37448;51.588;7.248;2024-02-21T05:45:53;101294.69;;;7.97;97.01
51359;BME280;37448;51.588;7.248;2024-02-21T05:47:54;101299.91;;;7.97;97.65
51359;BME280;37448;51.588;7.248;2024-02-21T05:49:55;101299.03;;;7.97;96.79
51359;BME280;37448;51.588;7.248;2024-02-21T05:51:55;101301.63;;;7.97;96.90
51359;BME280;37448;51.588;7.248;2024-02-21T05:53:55;101294.72;;;7.99;98.19
51359;BME280;37448;51.588;7.248;2024-02-21T05:55:56;101286.94;;;7.99;99.92
51359;BME280;37448;51.588;7.248;2024-02-21T05:57:56;101284.34;;;7.99;98.40
51359;BME280;37448;51.588;7.248;2024-02-21T05:59:56;101299.03;;;7.97;97.35
51359;BME280;37448;51.588;7.248;2024-02-21T06:01:57;101286.94;;;7.99;99.48
51359;BME280;37448;51.588;7.248;2024-02-21T06:03:58;101284.34;;;8.00;100.00
51359;BME280;37448;51.588;7.248;2024-02-21T06:05:59;101285.19;;;7.95;98.75
51359;BME280;37448;51.588;7.248;2024-02-21T06:08:00;101277.38;;;7.96;98.43
51359;BME280;37448;51.588;7.248;2024-02-21T06:10:02;101277.38;;;7.93;95.96
51359;BME280;37448;51.588;7.248;2024-02-21T06:12:03;101284.31;;;7.93;96.67
51359;BME280;37448;51.588;7.248;2024-02-21T06:14:03;101272.19;;;7.90;94.62
51359;BME280;37448;51.588;7.248;2024-02-21T06:16:05;101276.53;;;7.99;98.07
51359;BME280;37448;51.588;7.248;2024-02-21T06:18:05;101276.53;;;7.93;96.51
51359;BME280;37448;51.588;7.248;2024-02-21T06:20:06;101260.09;;;7.94;94.64
51359;BME280;37448;51.588;7.248;2024-02-21T06:22:07;101262.69;;;7.94;95.89
51359;BME280;37448;51.588;7.248;2024-02-21T06:24:08;101252.28;;;7.92;94.51
51359;BME280;37448;51.588;7.248;2024-02-21T06:26:08;101250.56;;;7.99;99.26
51359;BME280;37448;51.588;7.248;2024-02-21T06:28:08;101254.03;;;7.95;98.66
51359;BME280;37448;51.588;7.248;2024-02-21T06:30:09;101247.97;;;7.99;99.67
51359;BME280;37448;51.588;7.248;2024-02-21T06:32:10;101240.19;;;7.99;99.56
51359;BME280;37448;51.588;7.248;2024-02-21T06:34:10;101241.91;;;7.97;98.34
51359;BME280;37448;51.588;7.248;2024-02-21T06:36:11;101240.16;;;7.97;96.47
51359;BME280;37448;51.588;7.248;2024-02-21T06:38:11;101239.31;;;7.98;97.33
51359;BME280;37448;51.588;7.248;2024-02-21T06:40:12;101234.97;;;7.93;95.30
51359;BME280;37448;51.588;7.248;2024-02-21T06:42:12;101226.34;;;7.97;98.00
51359;BME280;37448;51.588;7.248;2024-02-21T06:44:13;101229.78;;;7.94;97.42
51359;BME280;37448;51.588;7.248;2024-02-21T06:46:24;101230.66;;;7.95;95.17
51359;BME280;37448;51.588;7.248;2024-02-21T06:49:06;101222.88;;;7.95;95.33
51359;BME280;37448;51.588;7.248;2024-02-21T06:51:06;101234.09;;;7.98;99.22
51359;BME280;37448;51.588;7.248;2024-02-21T06:53:07;101228.91;;;7.95;94.57
51359;BME280;37448;51.588;7.248;2024-02-21T06:55:07;101231.53;;;7.97;95.75
51359;BME280;37448;51.588;7.248;2024-02-21T06:57:08;101224.59;;;7.97;96.40
51359;BME280;37448;51.588;7.248;2024-02-21T06:59:08;101234.09;;;7.98;96.65
51359;BME280;37448;51.588;7.248;2024-02-21T07:01:10;101226.31;;;7.98;96.15
51359;BME280;37448;51.588;7.248;2024-02-21T07:03:10;101221.16;;;8.03;97.90
51359;BME280;37448;51.588;7.248;2024-02-21T07:05:10;101229.78;;;7.99;94.60
51359;BME280;37448;51.588;7.248;2024-02-21T07:07:11;101227.22;;;8.02;96.41
51359;BME280;37448;51.588;7.248;2024-02-21T07:09:11;101230.66;;;8.04;97.20
51359;BME280;37448;51.588;7.248;2024-02-21T07:11:11;101228.06;;;8.01;94.59
51359;BME280;37448;51.588;7.248;2024-02-21T07:13:12;101232.41;;;8.05;96.55
51359;BME280;37448;51.588;7.248;2024-02-21T07:15:13;101228.06;;;8.04;94.10
51359;BME280;37448;51.588;7.248;2024-02-21T07:17:13;101225.47;;;8.07;94.54
51359;BME280;37448;51.588;7.248;2024-02-21T07:19:14;101221.16;;;8.03;91.65
51359;BME280;37448;51.588;7.248;2024-02-21T07:21:14;101222.88;;;8.07;95.50
51359;BME280;37448;51.588;7.248;2024-02-21T07:23:15;101225.47;;;8.07;95.22
51359;BME280;37448;51.588;7.248;2024-02-21T07:25:15;101224.63;;;8.08;94.77
51359;BME280;37448;51.588;7.248;2024-02-21T07:27:16;101224.63;;;8.08;93.50
51359;BME280;37448;51.588;7.248;2024-02-21T07:29:16;101229.81;;;8.10;94.19
51359;BME280;37448;51.588;7.248;2024-02-21T07:31:17;101219.44;;;8.10;93.34
51359;BME280;37448;51.588;7.248;2024-02-21T07:33:17;101226.34;;;8.06;91.15
51359;BME280;37448;51.588;7.248;2024-02-21T07:35:18;101218.59;;;8.12;95.51
51359;BME280;37448;51.588;7.248;2024-02-21T07:37:18;101216.81;;;8.11;93.74
51359;BME280;37448;51.588;7.248;2024-02-21T07:39:18;101212.50;;;8.15;95.39
51359;BME280;37448;51.588;7.248;2024-02-21T07:41:19;101210.81;;;8.15;96.43
51359;BME280;37448;51.588;7.248;2024-02-21T07:43:19;101210.81;;;8.15;94.65
51359;BME280;37448;51.588;7.248;2024-02-21T07:45:22;101213.38;;;8.14;93.04
51359;BME280;37448;51.588;7.248;2024-02-21T07:47:24;101211.66;;;8.14;92.43
51359;BME280;37448;51.588;7.248;2024-02-21T07:49:24;101211.66;;;8.16;92.07
51359;BME280;37448;51.588;7.248;2024-02-21T07:51:28;101212.53;;;8.20;92.64
51359;BME280;37448;51.588;7.248;2024-02-21T07:53:28;101202.13;;;8.20;93.50
51359;BME280;37448;51.588;7.248;2024-02-21T07:55:28;101198.69;;;8.21;92.17
51359;BME280;37448;51.588;7.248;2024-02-21T07:57:29;101202.13;;;8.23;92.95
51359;BME280;37448;51.588;7.248;2024-02-21T07:59:29;101194.34;;;8.26;92.81
51359;BME280;37448;51.588;7.248;2024-02-21T08:01:30;101190.88;;;8.24;92.67
51359;BME280;37448;51.588;7.248;2024-02-21T08:03:30;101182.22;;;8.28;95.90
51359;BME280;37448;51.588;7.248;2024-02-21T08:05:34;101176.16;;;8.29;94.38
51359;BME280;37448;51.588;7.248;2024-02-21T08:07:34;101181.34;;;8.32;94.67
51359;BME280;37448;51.588;7.248;2024-02-21T08:09:35;101171.81;;;8.31;93.48
51359;BME280;37448;51.588;7.248;2024-02-21T08:11:37;101162.31;;;8.33;92.78
51359;BME280;37448;51.588;7.248;2024-02-21T08:13:38;101175.31;;;8.31;92.19
51359;BME280;37448;51.588;7.248;2024-02-21T08:15:38;101164.03;;;8.34;92.13
51359;BME280;37448;51.588;7.248;2024-02-21T08:17:39;101160.56;;;8.35;91.55
51359;BME280;37448;51.588;7.248;2024-02-21T08:19:40;101162.31;;;8.39;92.24
51359;BME280;37448;51.588;7.248;2024-02-21T08:21:40;101158.00;;;8.38;92.53
51359;BME280;37448;51.588;7.248;2024-02-21T08:23:40;101154.53;;;8.39;92.60
51359;BME280;37448;51.588;7.248;2024-02-21T08:25:41;101150.19;;;8.41;91.03
51359;BME280;37448;51.588;7.248;2024-02-21T08:27:41;101138.94;;;8.45;93.46
51359;BME280;37448;51.588;7.248;2024-02-21T08:29:41;101135.47;;;8.48;93.38
51359;BME280;37448;51.588;7.248;2024-02-21T08:31:42;101142.38;;;8.51;93.83
51359;BME280;37448;51.588;7.248;2024-02-21T08:33:42;101135.47;;;8.51;93.83
51359;BME280;37448;51.588;7.248;2024-02-21T08:35:42;101133.72;;;8.53;93.36
51359;BME280;37448;51.588;7.248;2024-02-21T08:37:43;101125.91;;;8.52;92.41
51359;BME280;37448;51.588;7.248;2024-02-21T08:39:43;101132.00;;;8.55;92.42
51359;BME280;37448;51.588;7.248;2024-02-21T08:41:44;101126.78;;;8.57;93.01
51359;BME280;37448;51.588;7.248;2024-02-21T08:43:44;101129.41;;;8.60;94.36
51359;BME280;37448;51.588;7.248;2024-02-21T08:45:44;101127.63;;;8.59;91.01
51359;BME280;37448;51.588;7.248;2024-02-21T08:47:45;101132.00;;;8.63;91.69
51359;BME280;37448;51.588;7.248;2024-02-21T08:49:45;101134.59;;;8.63;90.06
51359;BME280;37448;51.588;7.248;2024-02-21T08:51:45;101122.44;;;8.65;90.66
51359;BME280;37448;51.588;7.248;2024-02-21T08:53:47;101131.09;;;8.70;91.88
51359;BME280;37448;51.588;7.248;2024-02-21T08:55:48;101126.78;;;8.69;89.85
51359;BME280;37448;51.588;7.248;2024-02-21T08:57:48;101125.91;;;8.70;88.93
51359;BME280;37448;51.588;7.248;2024-02-21T08:59:48;101131.97;;;8.74;89.10
51359;BME280;37448;51.588;7.248;2024-02-21T09:01:50;101124.16;;;8.79;90.36
51359;BME280;37448;51.588;7.248;2024-02-21T09:03:51;101119.81;;;8.79;91.72
51359;BME280;37448;51.588;7.248;2024-02-21T09:05:53;101117.22;;;8.87;89.68
51359;BME280;37448;51.588;7.248;2024-02-21T09:07:54;101126.72;;;8.89;88.47
51359;BME280;37448;51.588;7.248;2024-02-21T09:09:54;101104.19;;;8.90;90.02
51359;BME280;37448;51.588;7.248;2024-02-21T09:11:55;101108.53;;;8.88;86.67
51359;BME280;37448;51.588;7.248;2024-02-21T09:13:55;101099.84;;;8.95;87.42
51359;BME280;37448;51.588;7.248;2024-02-21T09:15:55;101095.50;;;8.99;89.82
51359;BME280;37448;51.588;7.248;2024-02-21T09:17:56;101100.69;;;9.00;90.32
51359;BME280;37448;51.588;7.248;2024-02-21T09:19:56;101098.09;;;9.00;89.63
51359;BME280;37448;51.588;7.248;2024-02-21T09:21:59;101105.88;;;9.05;91.47
51359;BME280;37448;51.588;7.248;2024-02-21T09:23:59;101092.00;;;9.04;89.75
51359;BME280;37448;51.588;7.248;2024-02-21T09:25:59;101097.25;;;8.92;86.78
51359;BME280;37448;51.588;7.248;2024-02-21T09:28:03;101102.44;;;8.90;88.46
51359;BME280;37448;51.588;7.248;2024-02-21T09:30:06;101090.31;;;8.82;87.81
51359;BME280;37448;51.588;7.248;2024-02-21T09:32:07;101091.19;;;8.81;88.82
51359;BME280;37448;51.588;7.248;2024-02-21T09:34:07;101092.94;;;8.82;91.72
51359;BME280;37448;51.588;7.248;2024-02-21T09:36:08;101082.53;;;8.79;92.53
51359;BME280;37448;51.588;7.248;2024-02-21T09:38:08;101083.44;;;8.74;90.25
51359;BME280;37448;51.588;7.248;2024-02-21T09:40:09;101089.50;;;8.69;88.33
51359;BME280;37448;51.588;7.248;2024-02-21T09:42:11;101082.56;;;8.69;90.84
51359;BME280;37448;51.588;7.248;2024-02-21T09:44:13;101092.13;;;8.72;90.95
51359;BME280;37448;51.588;7.248;2024-02-21T09:46:18;101079.97;;;8.74;93.00
51359;BME280;37448;51.588;7.248;2024-02-21T09:50:28;101083.44;;;8.64;87.93
51359;BME280;37448;51.588;7.248;2024-02-21T09:52:30;101076.50;;;8.66;90.08
51359;BME280;37448;51.588;7.248;2024-02-21T09:54:35;101075.66;;;8.62;86.36
51359;BME280;37448;51.588;7.248;2024-02-21T09:56:36;101080.84;;;8.68;89.06
51359;BME280;37448;51.588;7.248;2024-02-21T09:58:37;101079.13;;;8.64;88.18
51359;BME280;37448;51.588;7.248;2024-02-21T10:00:38;101086.06;;;8.65;89.92
51359;BME280;37448;51.588;7.248;2024-02-21T10:02:41;101090.38;;;8.68;91.32
51359;BME280;37448;51.588;7.248;2024-02-21T10:04:41;101078.22;;;8.70;91.93
51359;BME280;37448;51.588;7.248;2024-02-21T10:06:42;101079.09;;;8.73;91.16
51359;BME280;37448;51.588;7.248;2024-02-21T10:08:43;101081.72;;;8.70;89.09
51359;BME280;37448;51.588;7.248;2024-02-21T10:10:45;101080.81;;;8.78;89.29
51359;BME280;37448;51.588;7.248;2024-02-21T10:12:50;101079.06;;;8.80;88.93
51359;BME280;37448;51.588;7.248;2024-02-21T10:15:00;101074.75;;;8.85;92.75
51359;BME280;37448;51.588;7.248;2024-02-21T10:17:01;101076.47;;;8.86;91.60
51359;BME280;37448;51.588;7.248;2024-02-21T10:19:02;101064.31;;;8.86;90.27
51359;BME280;37448;51.588;7.248;2024-02-21T10:21:04;101070.41;;;8.87;89.41
51359;BME280;37448;51.588;7.248;2024-02-21T10:23:05;101067.78;;;8.88;90.05
51359;BME280;37448;51.588;7.248;2024-02-21T10:25:10;101064.31;;;8.89;90.63
51359;BME280;37448;51.588;7.248;2024-02-21T10:27:10;101056.50;;;8.91;91.39
51359;BME280;37448;51.588;7.248;2024-02-21T10:29:11;101049.59;;;8.87;88.59
51359;BME280;37448;51.588;7.248;2024-02-21T10:31:21;101049.63;;;8.84;88.97
51359;BME280;37448;51.588;7.248;2024-02-21T10:33:23;101046.16;;;8.85;89.86
51359;BME280;37448;51.588;7.248;2024-02-21T10:35:29;101046.13;;;8.88;89.29
51359;BME280;37448;51.588;7.248;2024-02-21T10:37:30;101053.03;;;8.95;92.27
51359;BME280;37448;51.588;7.248;2024-02-21T10:39:33;101050.44;;;8.95;90.95
51359;BME280;37448;51.588;7.248;2024-02-21T10:41:33;101042.63;;;8.95;89.22
51359;BME280;37448;51.588;7.248;2024-02-21T10:43:40;101044.34;;;8.99;91.13